Atkinson, Nebraska
Current Conditions -  °F | °C
As of 5:15 AM on Friday 31 Oct 2014 (Local Time) from KONL Reporting Station
Clear Clear  
Wind Chill: 16°   Ceiling: Unl
Heat Index: 22°   Visibility: 10mi
Dew Point: 20°   Wind: 5mph
Humidity: 89%   Direction: 340°NNW
Pressure: 30.55"   Gusts: NA
Location:  42.53°N, 98.98°W
Report Text: KONL 311015Z AUTO 34004KT 10SM CLR M05/M07 A3055 RMK AO2 T10531068
Loading
Personal Weather Stations






























Interactive Weather Map
Tropical Storm Tracking
New forecast layout! Learn more

10-Day Weather Forecast

Advertisements
Track Severe Weather on mobile